sensor_id;sensor_type;location;lat;lon;timestamp;temperature;humidity
9057;DHT22;4563;54.756;9.400;2023-04-25T00:00:29;11.00;70.80
9057;DHT22;4563;54.756;9.400;2023-04-25T00:02:59;11.00;70.80
9057;DHT22;4563;54.756;9.400;2023-04-25T00:05:26;11.00;70.80
9057;DHT22;4563;54.756;9.400;2023-04-25T00:07:58;10.90;70.70
9057;DHT22;4563;54.756;9.400;2023-04-25T00:10:25;10.90;70.70
9057;DHT22;4563;54.756;9.400;2023-04-25T00:12:52;10.90;70.60
9057;DHT22;4563;54.756;9.400;2023-04-25T00:15:19;10.90;70.50
9057;DHT22;4563;54.756;9.400;2023-04-25T00:17:46;10.90;70.50
9057;DHT22;4563;54.756;9.400;2023-04-25T00:20:13;10.90;70.50
9057;DHT22;4563;54.756;9.400;2023-04-25T00:22:41;10.90;70.40
9057;DHT22;4563;54.756;9.400;2023-04-25T00:25:09;10.80;70.40
9057;DHT22;4563;54.756;9.400;2023-04-25T00:27:36;10.80;70.40
9057;DHT22;4563;54.756;9.400;2023-04-25T00:30:05;10.80;70.40
9057;DHT22;4563;54.756;9.400;2023-04-25T00:32:35;10.80;70.50
9057;DHT22;4563;54.756;9.400;2023-04-25T00:35:03;10.70;70.40
9057;DHT22;4563;54.756;9.400;2023-04-25T00:37:30;10.70;70.40
9057;DHT22;4563;54.756;9.400;2023-04-25T00:39:57;10.70;70.50
9057;DHT22;4563;54.756;9.400;2023-04-25T00:42:26;10.70;70.50
9057;DHT22;4563;54.756;9.400;2023-04-25T00:44:53;10.70;70.60
9057;DHT22;4563;54.756;9.400;2023-04-25T00:47:20;10.60;70.50
9057;DHT22;4563;54.756;9.400;2023-04-25T00:49:48;10.60;70.50
9057;DHT22;4563;54.756;9.400;2023-04-25T00:52:15;10.60;70.50
9057;DHT22;4563;54.756;9.400;2023-04-25T00:54:41;10.60;70.50
9057;DHT22;4563;54.756;9.400;2023-04-25T00:57:08;10.60;70.50
9057;DHT22;4563;54.756;9.400;2023-04-25T00:59:40;10.50;70.30
9057;DHT22;4563;54.756;9.400;2023-04-25T01:02:11;10.50;70.40
9057;DHT22;4563;54.756;9.400;2023-04-25T01:04:38;10.50;70.40
9057;DHT22;4563;54.756;9.400;2023-04-25T01:07:05;10.50;70.40
9057;DHT22;4563;54.756;9.400;2023-04-25T01:09:34;10.50;70.40
9057;DHT22;4563;54.756;9.400;2023-04-25T01:12:01;10.40;70.30
9057;DHT22;4563;54.756;9.400;2023-04-25T01:14:28;10.40;70.20
9057;DHT22;4563;54.756;9.400;2023-04-25T01:16:57;10.40;70.10
9057;DHT22;4563;54.756;9.400;2023-04-25T01:19:25;10.40;70.10
9057;DHT22;4563;54.756;9.400;2023-04-25T01:21:53;10.40;70.00
9057;DHT22;4563;54.756;9.400;2023-04-25T01:24:20;10.40;69.90
9057;DHT22;4563;54.756;9.400;2023-04-25T01:26:47;10.30;69.70
9057;DHT22;4563;54.756;9.400;2023-04-25T01:29:16;10.30;69.70
9057;DHT22;4563;54.756;9.400;2023-04-25T01:31:43;10.30;69.60
9057;DHT22;4563;54.756;9.400;2023-04-25T01:34:11;10.30;69.40
9057;DHT22;4563;54.756;9.400;2023-04-25T01:36:38;10.20;69.20
9057;DHT22;4563;54.756;9.400;2023-04-25T01:39:06;10.20;69.10
9057;DHT22;4563;54.756;9.400;2023-04-25T01:41:33;10.20;69.10
9057;DHT22;4563;54.756;9.400;2023-04-25T01:44:01;10.10;68.90
9057;DHT22;4563;54.756;9.400;2023-04-25T01:46:28;10.20;69.00
9057;DHT22;4563;54.756;9.400;2023-04-25T01:48:55;10.10;68.80
9057;DHT22;4563;54.756;9.400;2023-04-25T01:51:22;10.10;68.80
9057;DHT22;4563;54.756;9.400;2023-04-25T01:53:49;10.10;68.70
9057;DHT22;4563;54.756;9.400;2023-04-25T01:56:17;10.10;68.60
9057;DHT22;4563;54.756;9.400;2023-04-25T01:58:45;10.00;68.30
9057;DHT22;4563;54.756;9.400;2023-04-25T02:01:11;10.00;68.30
9057;DHT22;4563;54.756;9.400;2023-04-25T02:03:38;10.00;68.90
9057;DHT22;4563;54.756;9.400;2023-04-25T02:06:05;10.00;68.20
9057;DHT22;4563;54.756;9.400;2023-04-25T02:08:32;10.00;68.10
9057;DHT22;4563;54.756;9.400;2023-04-25T02:10:59;10.00;68.10
9057;DHT22;4563;54.756;9.400;2023-04-25T02:13:27;10.00;68.10
9057;DHT22;4563;54.756;9.400;2023-04-25T02:15:54;9.90;69.10
9057;DHT22;4563;54.756;9.400;2023-04-25T02:18:21;9.90;69.10
9057;DHT22;4563;54.756;9.400;2023-04-25T02:20:47;9.90;69.00
9057;DHT22;4563;54.756;9.400;2023-04-25T02:23:15;9.90;68.90
9057;DHT22;4563;54.756;9.400;2023-04-25T02:25:42;9.90;68.80
9057;DHT22;4563;54.756;9.400;2023-04-25T02:28:08;9.90;68.70
9057;DHT22;4563;54.756;9.400;2023-04-25T02:30:37;9.90;68.60
9057;DHT22;4563;54.756;9.400;2023-04-25T02:33:04;9.90;68.60
9057;DHT22;4563;54.756;9.400;2023-04-25T02:35:31;9.90;68.60
9057;DHT22;4563;54.756;9.400;2023-04-25T02:37:59;9.80;68.50
9057;DHT22;4563;54.756;9.400;2023-04-25T02:40:26;9.80;68.40
9057;DHT22;4563;54.756;9.400;2023-04-25T02:42:53;9.80;68.30
9057;DHT22;4563;54.756;9.400;2023-04-25T02:45:20;9.80;68.20
9057;DHT22;4563;54.756;9.400;2023-04-25T02:47:49;9.80;68.20
9057;DHT22;4563;54.756;9.400;2023-04-25T02:50:16;9.80;68.00
9057;DHT22;4563;54.756;9.400;2023-04-25T02:52:44;9.80;68.10
9057;DHT22;4563;54.756;9.400;2023-04-25T02:55:11;9.80;68.00
9057;DHT22;4563;54.756;9.400;2023-04-25T02:57:38;9.70;68.00
9057;DHT22;4563;54.756;9.400;2023-04-25T03:00:06;9.70;68.00
9057;DHT22;4563;54.756;9.400;2023-04-25T03:02:33;9.70;68.10
9057;DHT22;4563;54.756;9.400;2023-04-25T03:05:02;9.70;68.00
9057;DHT22;4563;54.756;9.400;2023-04-25T03:07:28;9.70;68.00
9057;DHT22;4563;54.756;9.400;2023-04-25T03:09:55;9.60;67.90
9057;DHT22;4563;54.756;9.400;2023-04-25T03:12:22;9.60;67.90
9057;DHT22;4563;54.756;9.400;2023-04-25T03:14:49;9.60;67.90
9057;DHT22;4563;54.756;9.400;2023-04-25T03:17:16;9.60;67.90
9057;DHT22;4563;54.756;9.400;2023-04-25T03:19:43;9.60;67.70
9057;DHT22;4563;54.756;9.400;2023-04-25T03:22:11;9.60;67.70
9057;DHT22;4563;54.756;9.400;2023-04-25T03:24:38;9.60;67.60
9057;DHT22;4563;54.756;9.400;2023-04-25T03:27:05;9.60;67.60
9057;DHT22;4563;54.756;9.400;2023-04-25T03:29:32;9.60;67.50
9057;DHT22;4563;54.756;9.400;2023-04-25T03:31:59;9.50;67.30
9057;DHT22;4563;54.756;9.400;2023-04-25T03:34:25;9.50;67.20
9057;DHT22;4563;54.756;9.400;2023-04-25T03:36:52;9.50;67.30
9057;DHT22;4563;54.756;9.400;2023-04-25T03:39:20;9.50;67.30
9057;DHT22;4563;54.756;9.400;2023-04-25T03:41:47;9.50;67.40
9057;DHT22;4563;54.756;9.400;2023-04-25T03:44:14;9.50;67.40
9057;DHT22;4563;54.756;9.400;2023-04-25T03:46:43;9.50;67.40
9057;DHT22;4563;54.756;9.400;2023-04-25T03:49:10;9.50;67.40
9057;DHT22;4563;54.756;9.400;2023-04-25T03:51:36;9.50;67.40
9057;DHT22;4563;54.756;9.400;2023-04-25T03:54:03;9.50;67.40
9057;DHT22;4563;54.756;9.400;2023-04-25T03:56:32;9.40;67.30
9057;DHT22;4563;54.756;9.400;2023-04-25T03:58:58;9.40;67.90
9057;DHT22;4563;54.756;9.400;2023-04-25T04:01:25;9.40;67.20
9057;DHT22;4563;54.756;9.400;2023-04-25T04:03:52;9.40;67.10
9057;DHT22;4563;54.756;9.400;2023-04-25T04:06:19;9.40;67.10
9057;DHT22;4563;54.756;9.400;2023-04-25T04:08:46;9.40;67.20
9057;DHT22;4563;54.756;9.400;2023-04-25T04:11:13;9.40;67.10
9057;DHT22;4563;54.756;9.400;2023-04-25T04:13:41;9.40;67.00
9057;DHT22;4563;54.756;9.400;2023-04-25T04:16:08;9.40;67.00
9057;DHT22;4563;54.756;9.400;2023-04-25T04:18:35;9.40;66.90
9057;DHT22;4563;54.756;9.400;2023-04-25T04:21:02;9.40;66.70
9057;DHT22;4563;54.756;9.400;2023-04-25T04:23:29;9.30;66.60
9057;DHT22;4563;54.756;9.400;2023-04-25T04:25:56;9.30;66.50
9057;DHT22;4563;54.756;9.400;2023-04-25T04:28:23;9.40;66.40
9057;DHT22;4563;54.756;9.400;2023-04-25T04:30:52;9.40;66.10
9057;DHT22;4563;54.756;9.400;2023-04-25T04:33:18;9.40;65.90
9057;DHT22;4563;54.756;9.400;2023-04-25T04:35:46;9.30;65.40
9057;DHT22;4563;54.756;9.400;2023-04-25T04:38:14;9.30;65.00
9057;DHT22;4563;54.756;9.400;2023-04-25T04:40:41;9.30;64.60
9057;DHT22;4563;54.756;9.400;2023-04-25T04:43:08;9.30;64.10
9057;DHT22;4563;54.756;9.400;2023-04-25T04:45:36;9.30;63.90
9057;DHT22;4563;54.756;9.400;2023-04-25T04:48:05;9.30;63.50
9057;DHT22;4563;54.756;9.400;2023-04-25T04:50:32;9.30;64.10
9057;DHT22;4563;54.756;9.400;2023-04-25T04:52:59;9.30;63.30
9057;DHT22;4563;54.756;9.400;2023-04-25T04:55:26;9.30;63.30
9057;DHT22;4563;54.756;9.400;2023-04-25T04:57:52;9.20;63.20
9057;DHT22;4563;54.756;9.400;2023-04-25T05:00:19;9.20;63.00
9057;DHT22;4563;54.756;9.400;2023-04-25T05:02:47;9.20;62.90
9057;DHT22;4563;54.756;9.400;2023-04-25T05:05:15;9.20;62.90
9057;DHT22;4563;54.756;9.400;2023-04-25T05:07:42;9.20;62.90
9057;DHT22;4563;54.756;9.400;2023-04-25T05:10:09;9.20;62.70
9057;DHT22;4563;54.756;9.400;2023-04-25T05:12:36;9.20;62.80
9057;DHT22;4563;54.756;9.400;2023-04-25T05:15:03;9.20;62.70
9057;DHT22;4563;54.756;9.400;2023-04-25T05:17:33;9.10;62.80
9057;DHT22;4563;54.756;9.400;2023-04-25T05:20:00;9.20;63.60
9057;DHT22;4563;54.756;9.400;2023-04-25T05:22:28;9.20;62.90
9057;DHT22;4563;54.756;9.400;2023-04-25T05:24:55;9.20;62.70
9057;DHT22;4563;54.756;9.400;2023-04-25T05:27:22;9.20;62.50
9057;DHT22;4563;54.756;9.400;2023-04-25T05:29:49;9.20;62.50
9057;DHT22;4563;54.756;9.400;2023-04-25T05:32:15;9.20;62.40
9057;DHT22;4563;54.756;9.400;2023-04-25T05:34:43;9.20;62.40
9057;DHT22;4563;54.756;9.400;2023-04-25T05:37:10;9.20;62.20
9057;DHT22;4563;54.756;9.400;2023-04-25T05:39:38;9.20;62.10
9057;DHT22;4563;54.756;9.400;2023-04-25T05:42:05;9.20;62.00
9057;DHT22;4563;54.756;9.400;2023-04-25T05:44:31;9.20;62.00
9057;DHT22;4563;54.756;9.400;2023-04-25T05:46:58;9.30;62.00
9057;DHT22;4563;54.756;9.400;2023-04-25T05:49:25;9.30;61.90
9057;DHT22;4563;54.756;9.400;2023-04-25T05:51:52;9.20;61.70
9057;DHT22;4563;54.756;9.400;2023-04-25T05:54:19;9.30;61.70
9057;DHT22;4563;54.756;9.400;2023-04-25T05:56:47;9.30;61.60
9057;DHT22;4563;54.756;9.400;2023-04-25T05:59:16;9.30;61.40
9057;DHT22;4563;54.756;9.400;2023-04-25T06:01:43;9.30;61.50
9057;DHT22;4563;54.756;9.400;2023-04-25T06:04:10;9.30;61.60
9057;DHT22;4563;54.756;9.400;2023-04-25T06:06:37;9.30;61.60
9057;DHT22;4563;54.756;9.400;2023-04-25T06:09:03;9.30;61.80
9057;DHT22;4563;54.756;9.400;2023-04-25T06:11:30;9.30;61.90
9057;DHT22;4563;54.756;9.400;2023-04-25T06:13:58;9.40;62.10
9057;DHT22;4563;54.756;9.400;2023-04-25T06:16:25;9.30;62.80
9057;DHT22;4563;54.756;9.400;2023-04-25T06:18:52;9.40;62.20
9057;DHT22;4563;54.756;9.400;2023-04-25T06:21:19;9.40;62.00
9057;DHT22;4563;54.756;9.400;2023-04-25T06:23:46;9.40;62.10
9057;DHT22;4563;54.756;9.400;2023-04-25T06:26:13;9.40;62.10
9057;DHT22;4563;54.756;9.400;2023-04-25T06:28:39;9.40;62.20
9057;DHT22;4563;54.756;9.400;2023-04-25T06:31:08;9.40;62.40
9057;DHT22;4563;54.756;9.400;2023-04-25T06:33:35;9.40;63.40
9057;DHT22;4563;54.756;9.400;2023-04-25T06:36:03;9.40;62.90
9057;DHT22;4563;54.756;9.400;2023-04-25T06:38:30;9.40;63.10
9057;DHT22;4563;54.756;9.400;2023-04-25T06:40:56;9.40;63.20
9057;DHT22;4563;54.756;9.400;2023-04-25T06:43:23;9.40;63.40
9057;DHT22;4563;54.756;9.400;2023-04-25T06:45:50;9.40;63.60
9057;DHT22;4563;54.756;9.400;2023-04-25T06:48:18;9.40;63.80
9057;DHT22;4563;54.756;9.400;2023-04-25T06:50:45;9.40;64.00
9057;DHT22;4563;54.756;9.400;2023-04-25T06:53:12;9.40;64.10
9057;DHT22;4563;54.756;9.400;2023-04-25T06:55:38;9.40;64.20
9057;DHT22;4563;54.756;9.400;2023-04-25T06:58:05;9.40;64.20
9057;DHT22;4563;54.756;9.400;2023-04-25T07:00:33;9.40;64.20
9057;DHT22;4563;54.756;9.400;2023-04-25T07:02:59;9.50;64.30
9057;DHT22;4563;54.756;9.400;2023-04-25T07:05:28;9.50;63.90
9057;DHT22;4563;54.756;9.400;2023-04-25T07:07:55;9.50;63.70
9057;DHT22;4563;54.756;9.400;2023-04-25T07:10:21;9.50;63.70
9057;DHT22;4563;54.756;9.400;2023-04-25T07:12:48;9.50;63.50
9057;DHT22;4563;54.756;9.400;2023-04-25T07:15:15;9.50;63.10
9057;DHT22;4563;54.756;9.400;2023-04-25T07:17:42;9.60;62.80
9057;DHT22;4563;54.756;9.400;2023-04-25T07:20:09;9.60;62.40
9057;DHT22;4563;54.756;9.400;2023-04-25T07:22:38;9.60;61.90
9057;DHT22;4563;54.756;9.400;2023-04-25T07:25:05;9.60;61.50
9057;DHT22;4563;54.756;9.400;2023-04-25T07:27:32;9.60;61.00
9057;DHT22;4563;54.756;9.400;2023-04-25T07:29:59;9.60;60.90
9057;DHT22;4563;54.756;9.400;2023-04-25T07:32:26;9.70;60.80
9057;DHT22;4563;54.756;9.400;2023-04-25T07:34:53;9.70;60.60
9057;DHT22;4563;54.756;9.400;2023-04-25T07:37:19;9.70;60.50
9057;DHT22;4563;54.756;9.400;2023-04-25T07:39:47;9.70;60.40
9057;DHT22;4563;54.756;9.400;2023-04-25T07:42:14;9.70;60.40
9057;DHT22;4563;54.756;9.400;2023-04-25T07:44:41;9.70;60.40
9057;DHT22;4563;54.756;9.400;2023-04-25T07:47:10;9.70;60.40
9057;DHT22;4563;54.756;9.400;2023-04-25T07:49:37;9.70;60.60
9057;DHT22;4563;54.756;9.400;2023-04-25T07:52:05;9.80;60.50
9057;DHT22;4563;54.756;9.400;2023-04-25T07:54:32;9.80;60.10
9057;DHT22;4563;54.756;9.400;2023-04-25T07:57:00;9.80;60.10
9057;DHT22;4563;54.756;9.400;2023-04-25T07:59:27;9.90;59.90
9057;DHT22;4563;54.756;9.400;2023-04-25T08:01:54;9.80;59.80
9057;DHT22;4563;54.756;9.400;2023-04-25T08:04:22;9.80;59.50
9057;DHT22;4563;54.756;9.400;2023-04-25T08:06:49;9.90;59.40
9057;DHT22;4563;54.756;9.400;2023-04-25T08:09:16;9.90;59.30
9057;DHT22;4563;54.756;9.400;2023-04-25T08:11:43;10.00;58.00
9057;DHT22;4563;54.756;9.400;2023-04-25T08:14:14;10.00;57.90
9057;DHT22;4563;54.756;9.400;2023-04-25T08:16:41;10.00;58.00
9057;DHT22;4563;54.756;9.400;2023-04-25T08:19:08;10.00;58.00
9057;DHT22;4563;54.756;9.400;2023-04-25T08:21:35;10.00;58.00
9057;DHT22;4563;54.756;9.400;2023-04-25T08:24:02;10.10;57.90
9057;DHT22;4563;54.756;9.400;2023-04-25T08:26:29;10.10;57.90
9057;DHT22;4563;54.756;9.400;2023-04-25T08:28:56;10.10;57.80
9057;DHT22;4563;54.756;9.400;2023-04-25T08:31:24;10.10;57.40
9057;DHT22;4563;54.756;9.400;2023-04-25T08:33:51;10.20;57.50
9057;DHT22;4563;54.756;9.400;2023-04-25T08:36:18;10.20;57.50
9057;DHT22;4563;54.756;9.400;2023-04-25T08:38:45;10.20;57.50
9057;DHT22;4563;54.756;9.400;2023-04-25T08:41:12;10.30;57.70
9057;DHT22;4563;54.756;9.400;2023-04-25T08:43:42;10.30;57.90
9057;DHT22;4563;54.756;9.400;2023-04-25T08:46:09;10.30;58.20
9057;DHT22;4563;54.756;9.400;2023-04-25T08:48:40;10.30;58.30
9057;DHT22;4563;54.756;9.400;2023-04-25T08:51:10;10.40;58.40
9057;DHT22;4563;54.756;9.400;2023-04-25T08:53:41;10.40;58.40
9057;DHT22;4563;54.756;9.400;2023-04-25T08:56:11;10.40;58.40
9057;DHT22;4563;54.756;9.400;2023-04-25T08:58:39;10.40;58.40
9057;DHT22;4563;54.756;9.400;2023-04-25T09:01:06;10.50;58.40
9057;DHT22;4563;54.756;9.400;2023-04-25T09:03:33;10.50;58.50
9057;DHT22;4563;54.756;9.400;2023-04-25T09:06:02;10.50;58.50
9057;DHT22;4563;54.756;9.400;2023-04-25T09:08:29;10.50;58.80
9057;DHT22;4563;54.756;9.400;2023-04-25T09:10:56;10.50;59.30
9057;DHT22;4563;54.756;9.400;2023-04-25T09:13:27;10.50;58.70
9057;DHT22;4563;54.756;9.400;2023-04-25T09:15:55;10.60;58.70
9057;DHT22;4563;54.756;9.400;2023-04-25T09:18:23;10.60;58.40
9057;DHT22;4563;54.756;9.400;2023-04-25T09:20:52;10.70;58.30
9057;DHT22;4563;54.756;9.400;2023-04-25T09:23:21;10.70;58.40
9057;DHT22;4563;54.756;9.400;2023-04-25T09:25:50;10.70;58.30
9057;DHT22;4563;54.756;9.400;2023-04-25T09:28:22;10.90;58.20
9057;DHT22;4563;54.756;9.400;2023-04-25T09:30:49;10.90;57.70
9057;DHT22;4563;54.756;9.400;2023-04-25T09:33:16;11.00;57.70
9057;DHT22;4563;54.756;9.400;2023-04-25T09:35:43;11.10;57.80
9057;DHT22;4563;54.756;9.400;2023-04-25T09:38:12;11.10;58.40
9057;DHT22;4563;54.756;9.400;2023-04-25T09:40:41;11.20;59.00
9057;DHT22;4563;54.756;9.400;2023-04-25T09:43:18;11.20;59.60
9057;DHT22;4563;54.756;9.400;2023-04-25T09:45:46;11.20;60.60
9057;DHT22;4563;54.756;9.400;2023-04-25T09:48:17;11.30;60.70
9057;DHT22;4563;54.756;9.400;2023-04-25T09:50:43;11.40;60.90
9057;DHT22;4563;54.756;9.400;2023-04-25T09:53:10;11.50;61.20
9057;DHT22;4563;54.756;9.400;2023-04-25T09:55:38;11.60;61.40
9057;DHT22;4563;54.756;9.400;2023-04-25T09:58:08;11.70;61.50
9057;DHT22;4563;54.756;9.400;2023-04-25T10:00:37;11.80;61.10
9057;DHT22;4563;54.756;9.400;2023-04-25T10:03:05;12.00;60.70
9057;DHT22;4563;54.756;9.400;2023-04-25T10:05:32;12.00;60.20
9057;DHT22;4563;54.756;9.400;2023-04-25T10:08:02;12.20;60.10
9057;DHT22;4563;54.756;9.400;2023-04-25T10:10:30;12.30;60.70
9057;DHT22;4563;54.756;9.400;2023-04-25T10:13:03;12.30;59.50
9057;DHT22;4563;54.756;9.400;2023-04-25T10:15:32;12.30;59.20
9057;DHT22;4563;54.756;9.400;2023-04-25T10:18:00;12.30;59.30
9057;DHT22;4563;54.756;9.400;2023-04-25T10:20:28;12.40;59.00
9057;DHT22;4563;54.756;9.400;2023-04-25T10:22:58;12.40;59.00
9057;DHT22;4563;54.756;9.400;2023-04-25T10:25:27;12.40;59.10
9057;DHT22;4563;54.756;9.400;2023-04-25T10:27:54;12.30;59.10
9057;DHT22;4563;54.756;9.400;2023-04-25T10:30:21;12.30;59.20
9057;DHT22;4563;54.756;9.400;2023-04-25T10:32:49;12.30;59.10
9057;DHT22;4563;54.756;9.400;2023-04-25T10:35:18;12.30;59.10
9057;DHT22;4563;54.756;9.400;2023-04-25T10:37:59;12.30;59.20
9057;DHT22;4563;54.756;9.400;2023-04-25T10:40:27;12.30;59.80
9057;DHT22;4563;54.756;9.400;2023-04-25T10:42:54;12.30;59.30
9057;DHT22;4563;54.756;9.400;2023-04-25T10:45:22;12.40;58.90
9057;DHT22;4563;54.756;9.400;2023-04-25T10:47:50;12.40;58.30
9057;DHT22;4563;54.756;9.400;2023-04-25T10:50:17;12.50;57.30
9057;DHT22;4563;54.756;9.400;2023-04-25T10:52:44;12.50;56.90
9057;DHT22;4563;54.756;9.400;2023-04-25T10:55:11;12.60;56.40
9057;DHT22;4563;54.756;9.400;2023-04-25T10:57:39;12.60;55.60
9057;DHT22;4563;54.756;9.400;2023-04-25T11:00:09;12.70;55.40
9057;DHT22;4563;54.756;9.400;2023-04-25T11:02:38;12.70;55.40
9057;DHT22;4563;54.756;9.400;2023-04-25T11:05:09;12.80;55.40
9057;DHT22;4563;54.756;9.400;2023-04-25T11:07:44;12.90;56.00
9057;DHT22;4563;54.756;9.400;2023-04-25T11:10:15;13.00;55.80
9057;DHT22;4563;54.756;9.400;2023-04-25T11:12:42;13.20;55.40
9057;DHT22;4563;54.756;9.400;2023-04-25T11:15:09;13.30;55.30
9057;DHT22;4563;54.756;9.400;2023-04-25T11:17:35;13.40;55.50
9057;DHT22;4563;54.756;9.400;2023-04-25T11:20:03;13.50;55.60
9057;DHT22;4563;54.756;9.400;2023-04-25T11:22:37;13.60;55.60
9057;DHT22;4563;54.756;9.400;2023-04-25T11:25:05;13.70;55.60
9057;DHT22;4563;54.756;9.400;2023-04-25T11:27:32;13.80;55.30
9057;DHT22;4563;54.756;9.400;2023-04-25T11:30:10;13.90;55.00
9057;DHT22;4563;54.756;9.400;2023-04-25T11:32:39;13.90;55.40
9057;DHT22;4563;54.756;9.400;2023-04-25T11:35:07;14.00;54.60
9057;DHT22;4563;54.756;9.400;2023-04-25T11:37:36;14.00;53.90
9057;DHT22;4563;54.756;9.400;2023-04-25T11:40:04;14.00;54.10
9057;DHT22;4563;54.756;9.400;2023-04-25T11:42:33;14.00;54.30
9057;DHT22;4563;54.756;9.400;2023-04-25T11:45:00;14.00;54.40
9057;DHT22;4563;54.756;9.400;2023-04-25T11:47:30;14.10;54.50
9057;DHT22;4563;54.756;9.400;2023-04-25T11:49:58;14.10;54.70
9057;DHT22;4563;54.756;9.400;2023-04-25T11:52:37;14.10;54.30
9057;DHT22;4563;54.756;9.400;2023-04-25T11:55:05;14.10;55.00
9057;DHT22;4563;54.756;9.400;2023-04-25T11:57:33;14.10;53.70
9057;DHT22;4563;54.756;9.400;2023-04-25T12:00:11;14.20;53.90
9057;DHT22;4563;54.756;9.400;2023-04-25T12:02:42;14.20;54.50
9057;DHT22;4563;54.756;9.400;2023-04-25T12:05:11;14.20;54.00
9057;DHT22;4563;54.756;9.400;2023-04-25T12:07:39;14.30;53.40
9057;DHT22;4563;54.756;9.400;2023-04-25T12:10:09;14.30;53.30
9057;DHT22;4563;54.756;9.400;2023-04-25T12:12:37;14.30;53.30
9057;DHT22;4563;54.756;9.400;2023-04-25T12:15:12;14.30;53.20
9057;DHT22;4563;54.756;9.400;2023-04-25T12:17:41;14.30;54.60
9057;DHT22;4563;54.756;9.400;2023-04-25T12:20:09;14.30;53.50
9057;DHT22;4563;54.756;9.400;2023-04-25T12:22:37;14.30;53.60
9057;DHT22;4563;54.756;9.400;2023-04-25T12:25:05;14.40;53.00
9057;DHT22;4563;54.756;9.400;2023-04-25T12:27:33;14.50;53.10
9057;DHT22;4563;54.756;9.400;2023-04-25T12:30:01;14.50;52.00
9057;DHT22;4563;54.756;9.400;2023-04-25T12:32:28;14.60;51.50
9057;DHT22;4563;54.756;9.400;2023-04-25T12:34:56;14.70;50.80
9057;DHT22;4563;54.756;9.400;2023-04-25T12:37:23;14.80;51.10
9057;DHT22;4563;54.756;9.400;2023-04-25T12:39:52;14.90;51.40
9057;DHT22;4563;54.756;9.400;2023-04-25T12:42:22;14.90;50.60
9057;DHT22;4563;54.756;9.400;2023-04-25T12:44:49;15.00;52.80
9057;DHT22;4563;54.756;9.400;2023-04-25T12:47:16;15.00;53.50
9057;DHT22;4563;54.756;9.400;2023-04-25T12:49:42;15.00;54.20
9057;DHT22;4563;54.756;9.400;2023-04-25T12:52:09;15.00;54.60
9057;DHT22;4563;54.756;9.400;2023-04-25T12:54:36;15.00;55.10
9057;DHT22;4563;54.756;9.400;2023-04-25T12:57:04;15.00;55.00
9057;DHT22;4563;54.756;9.400;2023-04-25T12:59:32;15.00;55.20
9057;DHT22;4563;54.756;9.400;2023-04-25T13:01:58;14.90;55.50
9057;DHT22;4563;54.756;9.400;2023-04-25T13:04:25;14.90;55.60
9057;DHT22;4563;54.756;9.400;2023-04-25T13:06:52;14.90;55.70
9057;DHT22;4563;54.756;9.400;2023-04-25T13:09:19;15.00;56.00
9057;DHT22;4563;54.756;9.400;2023-04-25T13:11:46;15.00;55.80
9057;DHT22;4563;54.756;9.400;2023-04-25T13:14:13;15.10;56.10
9057;DHT22;4563;54.756;9.400;2023-04-25T13:16:42;15.10;55.90
9057;DHT22;4563;54.756;9.400;2023-04-25T13:19:08;15.20;55.90
9057;DHT22;4563;54.756;9.400;2023-04-25T13:21:36;15.20;55.30
9057;DHT22;4563;54.756;9.400;2023-04-25T13:24:04;15.30;55.20
9057;DHT22;4563;54.756;9.400;2023-04-25T13:26:31;15.30;54.90
9057;DHT22;4563;54.756;9.400;2023-04-25T13:28:58;15.40;54.80
9057;DHT22;4563;54.756;9.400;2023-04-25T13:31:25;15.50;55.20
9057;DHT22;4563;54.756;9.400;2023-04-25T13:33:54;15.50;55.10
9057;DHT22;4563;54.756;9.400;2023-04-25T13:36:20;15.60;55.20
9057;DHT22;4563;54.756;9.400;2023-04-25T13:38:48;15.70;55.10
9057;DHT22;4563;54.756;9.400;2023-04-25T13:41:15;15.80;54.90
9057;DHT22;4563;54.756;9.400;2023-04-25T13:43:44;15.90;54.00
9057;DHT22;4563;54.756;9.400;2023-04-25T13:46:12;16.00;54.10
9057;DHT22;4563;54.756;9.400;2023-04-25T13:48:41;16.10;54.50
9057;DHT22;4563;54.756;9.400;2023-04-25T13:51:13;16.20;55.00
9057;DHT22;4563;54.756;9.400;2023-04-25T13:53:40;16.30;54.70
9057;DHT22;4563;54.756;9.400;2023-04-25T13:56:10;16.30;54.20
9057;DHT22;4563;54.756;9.400;2023-04-25T13:58:39;16.30;53.80
9057;DHT22;4563;54.756;9.400;2023-04-25T14:01:06;16.40;53.30
9057;DHT22;4563;54.756;9.400;2023-04-25T14:03:33;16.40;53.70
9057;DHT22;4563;54.756;9.400;2023-04-25T14:06:00;16.40;53.30
9057;DHT22;4563;54.756;9.400;2023-04-25T14:08:28;16.40;54.00
9057;DHT22;4563;54.756;9.400;2023-04-25T14:10:55;16.40;53.90
9057;DHT22;4563;54.756;9.400;2023-04-25T14:13:22;16.50;53.70
9057;DHT22;4563;54.756;9.400;2023-04-25T14:15:50;16.60;53.60
9057;DHT22;4563;54.756;9.400;2023-04-25T14:18:17;16.60;53.40
9057;DHT22;4563;54.756;9.400;2023-04-25T14:20:44;16.60;52.90
9057;DHT22;4563;54.756;9.400;2023-04-25T14:23:11;16.60;52.70
9057;DHT22;4563;54.756;9.400;2023-04-25T14:25:39;16.60;52.60
9057;DHT22;4563;54.756;9.400;2023-04-25T14:28:07;16.60;52.80
9057;DHT22;4563;54.756;9.400;2023-04-25T14:30:34;16.50;52.30
9057;DHT22;4563;54.756;9.400;2023-04-25T14:33:01;16.50;52.10
9057;DHT22;4563;54.756;9.400;2023-04-25T14:35:28;16.40;51.80
9057;DHT22;4563;54.756;9.400;2023-04-25T14:37:54;16.30;52.00
9057;DHT22;4563;54.756;9.400;2023-04-25T14:40:22;16.30;52.00
9057;DHT22;4563;54.756;9.400;2023-04-25T14:42:50;16.20;52.10
9057;DHT22;4563;54.756;9.400;2023-04-25T14:45:17;16.20;52.00
9057;DHT22;4563;54.756;9.400;2023-04-25T14:47:44;16.10;51.60
9057;DHT22;4563;54.756;9.400;2023-04-25T14:50:11;16.00;52.10
9057;DHT22;4563;54.756;9.400;2023-04-25T14:52:38;16.00;51.90
9057;DHT22;4563;54.756;9.400;2023-04-25T14:55:05;15.90;52.20
9057;DHT22;4563;54.756;9.400;2023-04-25T14:57:33;15.90;52.90
9057;DHT22;4563;54.756;9.400;2023-04-25T15:00:01;15.80;53.00
9057;DHT22;4563;54.756;9.400;2023-04-25T15:02:33;15.70;53.40
9057;DHT22;4563;54.756;9.400;2023-04-25T15:05:00;15.60;52.80
9057;DHT22;4563;54.756;9.400;2023-04-25T15:07:27;15.60;52.90
9057;DHT22;4563;54.756;9.400;2023-04-25T15:09:54;15.40;53.00
9057;DHT22;4563;54.756;9.400;2023-04-25T15:12:22;15.30;52.80
9057;DHT22;4563;54.756;9.400;2023-04-25T15:14:49;15.20;53.10
9057;DHT22;4563;54.756;9.400;2023-04-25T15:17:17;15.20;53.70
9057;DHT22;4563;54.756;9.400;2023-04-25T15:19:44;15.10;53.80
9057;DHT22;4563;54.756;9.400;2023-04-25T15:22:11;15.00;53.80
9057;DHT22;4563;54.756;9.400;2023-04-25T15:24:38;15.00;54.00
9057;DHT22;4563;54.756;9.400;2023-04-25T15:27:04;15.00;54.20
9057;DHT22;4563;54.756;9.400;2023-04-25T15:29:31;14.90;54.50
9057;DHT22;4563;54.756;9.400;2023-04-25T15:31:58;14.90;54.60
9057;DHT22;4563;54.756;9.400;2023-04-25T15:34:28;14.80;54.50
9057;DHT22;4563;54.756;9.400;2023-04-25T15:36:55;14.80;53.80
9057;DHT22;4563;54.756;9.400;2023-04-25T15:39:23;14.80;53.50
9057;DHT22;4563;54.756;9.400;2023-04-25T15:41:49;14.80;53.70
9057;DHT22;4563;54.756;9.400;2023-04-25T15:44:16;14.70;53.40
9057;DHT22;4563;54.756;9.400;2023-04-25T15:46:43;14.60;53.60
9057;DHT22;4563;54.756;9.400;2023-04-25T15:49:10;14.50;53.70
9057;DHT22;4563;54.756;9.400;2023-04-25T15:51:39;14.50;53.60
9057;DHT22;4563;54.756;9.400;2023-04-25T15:54:05;14.40;53.90
9057;DHT22;4563;54.756;9.400;2023-04-25T15:56:32;14.30;53.70
9057;DHT22;4563;54.756;9.400;2023-04-25T15:58:59;14.30;54.20
9057;DHT22;4563;54.756;9.400;2023-04-25T16:01:26;14.20;53.50
9057;DHT22;4563;54.756;9.400;2023-04-25T16:03:55;14.10;53.50
9057;DHT22;4563;54.756;9.400;2023-04-25T16:06:23;14.10;53.40
9057;DHT22;4563;54.756;9.400;2023-04-25T16:08:52;14.10;53.70